createdAt,value
2023-02-11T00:02:23.514Z,6.90
2023-02-11T00:04:51.577Z,6.90
2023-02-11T00:07:19.650Z,6.90
2023-02-11T00:09:47.671Z,6.90
2023-02-11T00:12:19.549Z,7.00
2023-02-11T00:14:47.600Z,8.20
2023-02-11T00:17:15.584Z,7.10
2023-02-11T00:19:43.686Z,6.90
2023-02-11T00:22:11.686Z,6.90
2023-02-11T00:24:39.661Z,6.90
2023-02-11T00:27:07.651Z,6.90
2023-02-11T00:29:38.247Z,7.10
2023-02-11T00:32:06.955Z,7.70
2023-02-11T00:34:35.599Z,6.90
2023-02-11T00:37:04.262Z,6.90
2023-02-11T00:39:33.129Z,6.90
2023-02-11T00:42:01.305Z,6.90
2023-02-11T00:44:29.310Z,7.00
2023-02-11T00:46:58.684Z,7.00
2023-02-11T00:49:26.653Z,6.90
2023-02-11T00:51:54.647Z,8.00
2023-02-11T00:54:22.596Z,7.00
2023-02-11T00:56:50.611Z,7.50
2023-02-11T00:59:18.618Z,6.90
2023-02-11T01:01:46.729Z,7.20
2023-02-11T01:04:16.183Z,7.50
2023-02-11T01:06:44.237Z,7.00
2023-02-11T01:09:12.247Z,7.00
2023-02-11T01:11:40.229Z,7.00
2023-02-11T01:14:08.212Z,7.00
2023-02-11T01:16:36.197Z,6.90
2023-02-11T01:19:04.393Z,6.90
2023-02-11T01:21:33.748Z,7.00
2023-02-11T01:24:01.777Z,6.90
2023-02-11T01:26:29.798Z,6.90
2023-02-11T01:29:00.070Z,7.20
2023-02-11T01:31:28.503Z,7.00
2023-02-11T01:33:56.558Z,6.90
2023-02-11T01:36:24.602Z,6.80
2023-02-11T01:38:54.060Z,6.80
2023-02-11T01:41:22.590Z,6.80
2023-02-11T01:43:51.878Z,6.70
2023-02-11T01:46:32.055Z,6.70
2023-02-11T01:49:05.506Z,6.60
2023-02-11T01:51:38.030Z,6.50
2023-02-11T01:54:29.998Z,6.50
2023-02-11T01:57:18.012Z,6.40
2023-02-11T01:59:51.766Z,6.30
2023-02-11T02:02:24.542Z,6.30
2023-02-11T02:04:58.567Z,6.20
2023-02-11T02:07:33.694Z,6.20
2023-02-11T02:10:07.581Z,7.10
2023-02-11T02:12:35.607Z,6.40
2023-02-11T02:15:25.214Z,6.50
2023-02-11T02:18:04.411Z,6.10
2023-02-11T02:21:20.992Z,6.10
2023-02-11T02:24:32.877Z,6.00
2023-02-11T02:27:30.731Z,5.90
2023-02-11T02:30:36.049Z,5.80
2023-02-11T02:33:23.431Z,5.80
2023-02-11T02:35:59.276Z,5.70
2023-02-11T02:38:35.078Z,5.70
2023-02-11T02:41:07.364Z,5.70
2023-02-11T02:43:36.845Z,6.50
2023-02-11T02:46:16.868Z,5.60
2023-02-11T02:48:49.465Z,5.60
2023-02-11T02:51:37.259Z,5.50
2023-02-11T02:54:30.587Z,5.50
2023-02-11T02:57:08.713Z,5.50
2023-02-11T02:59:51.595Z,5.40
2023-02-11T03:02:26.030Z,5.90
2023-02-11T03:05:03.561Z,5.40
2023-02-11T03:07:41.213Z,5.40
2023-02-11T03:10:14.981Z,5.70
2023-02-11T03:12:45.339Z,5.40
2023-02-11T03:15:14.884Z,5.40
2023-02-11T03:17:46.955Z,5.40
2023-02-11T03:20:19.333Z,5.40
2023-02-11T03:22:49.513Z,5.40
2023-02-11T03:25:17.854Z,5.40
2023-02-11T03:27:52.540Z,5.40
2023-02-11T03:30:26.458Z,5.40
2023-02-11T03:33:01.089Z,5.40
2023-02-11T03:35:38.833Z,5.40
2023-02-11T03:38:11.781Z,5.30
2023-02-11T03:40:42.231Z,5.40
2023-02-11T03:43:13.428Z,5.40
2023-02-11T03:45:42.143Z,5.40
2023-02-11T03:48:15.629Z,5.40
2023-02-11T03:50:47.432Z,5.40
2023-02-11T03:53:16.869Z,5.40
2023-02-11T03:55:46.625Z,5.40
2023-02-11T03:58:14.720Z,5.40
2023-02-11T04:00:44.085Z,5.40
2023-02-11T04:03:13.243Z,5.30
2023-02-11T04:05:41.710Z,5.30
2023-02-11T04:08:11.130Z,5.20
2023-02-11T04:10:39.160Z,5.20
2023-02-11T04:13:07.167Z,5.20
2023-02-11T04:15:35.225Z,5.20
2023-02-11T04:18:03.682Z,6.30
2023-02-11T04:20:31.725Z,5.20
2023-02-11T04:22:59.738Z,5.20
2023-02-11T04:25:29.260Z,5.10
2023-02-11T04:27:57.374Z,5.20
2023-02-11T04:30:25.483Z,5.20
2023-02-11T04:32:54.334Z,5.20
2023-02-11T04:35:22.468Z,5.20
2023-02-11T04:37:50.471Z,5.30
2023-02-11T04:40:18.776Z,5.20
2023-02-11T04:42:48.092Z,5.20
2023-02-11T04:45:16.197Z,5.20
2023-02-11T04:47:44.182Z,5.10
2023-02-11T04:50:12.152Z,5.10
2023-02-11T04:52:40.116Z,5.10
2023-02-11T04:55:08.521Z,5.40
2023-02-11T04:57:36.548Z,5.10
2023-02-11T05:00:07.433Z,5.10
2023-02-11T05:02:35.457Z,5.10
2023-02-11T05:05:03.522Z,5.20
2023-02-11T05:07:31.588Z,5.20
2023-02-11T05:09:59.581Z,5.20
2023-02-11T05:12:27.616Z,5.30
2023-02-11T05:14:55.701Z,5.20
2023-02-11T05:17:25.061Z,5.20
2023-02-11T05:19:53.053Z,5.20
2023-02-11T05:22:21.919Z,5.70
2023-02-11T05:24:50.164Z,5.20
2023-02-11T05:27:18.165Z,5.20
2023-02-11T05:29:46.123Z,5.20
2023-02-11T05:32:14.081Z,5.10
2023-02-11T05:34:43.550Z,5.10
2023-02-11T05:37:11.647Z,5.10
2023-02-11T05:39:39.650Z,5.10
2023-02-11T05:42:08.097Z,5.10
2023-02-11T05:44:36.107Z,5.00
2023-02-11T05:47:04.576Z,5.00
2023-02-11T05:49:32.713Z,5.20
2023-02-11T05:52:02.053Z,5.00
2023-02-11T05:54:30.118Z,5.00
2023-02-11T05:56:58.102Z,5.00
2023-02-11T05:59:26.348Z,4.90
2023-02-11T06:01:54.384Z,4.90
2023-02-11T06:04:22.859Z,4.90
2023-02-11T06:06:50.824Z,5.00
2023-02-11T06:09:20.200Z,5.00
2023-02-11T06:11:48.146Z,5.40
2023-02-11T06:14:16.189Z,5.00
2023-02-11T06:16:44.312Z,5.00
2023-02-11T06:19:12.631Z,5.00
2023-02-11T06:21:44.171Z,5.10
2023-02-11T06:24:24.687Z,5.00
2023-02-11T06:27:06.548Z,5.10
2023-02-11T06:29:34.553Z,5.10
2023-02-11T06:32:02.785Z,5.20
2023-02-11T06:34:30.856Z,5.10
2023-02-11T06:36:58.865Z,5.20
2023-02-11T06:39:26.858Z,5.30
2023-02-11T06:41:54.891Z,5.30
2023-02-11T06:44:24.348Z,5.30
2023-02-11T06:46:52.400Z,5.30
2023-02-11T06:49:20.371Z,5.30
2023-02-11T06:51:48.392Z,5.30
2023-02-11T06:54:16.410Z,5.70
2023-02-11T06:56:44.426Z,5.30
2023-02-11T06:59:16.658Z,5.30
2023-02-11T07:01:46.111Z,5.30
2023-02-11T07:04:14.764Z,5.60
2023-02-11T07:06:43.078Z,5.30
2023-02-11T07:09:11.127Z,5.30
2023-02-11T07:11:39.133Z,5.20
2023-02-11T07:14:09.305Z,5.20
2023-02-11T07:16:37.807Z,5.30
2023-02-11T07:19:07.260Z,5.30
2023-02-11T07:21:35.566Z,5.30
2023-02-11T07:24:08.885Z,5.30
2023-02-11T07:26:41.264Z,5.40
2023-02-11T07:29:09.310Z,5.50
2023-02-11T07:31:37.538Z,5.50
2023-02-11T07:34:06.954Z,5.90
2023-02-11T07:36:35.039Z,5.60
2023-02-11T07:39:03.056Z,5.90
2023-02-11T07:41:31.164Z,5.60
2023-02-11T07:43:59.193Z,5.90
2023-02-11T07:46:28.837Z,5.80
2023-02-11T07:48:57.432Z,5.80
2023-02-11T07:51:29.733Z,5.80
2023-02-11T07:54:00.390Z,5.90
2023-02-11T07:56:29.620Z,6.00
2023-02-11T07:59:00.977Z,6.00
2023-02-11T08:01:29.235Z,6.10
2023-02-11T08:03:58.057Z,6.10
2023-02-11T08:06:29.024Z,6.20
2023-02-11T08:08:57.248Z,6.70
2023-02-11T08:11:26.725Z,6.20
2023-02-11T08:13:55.514Z,6.30
2023-02-11T08:16:26.546Z,6.40
2023-02-11T08:18:55.214Z,6.70
2023-02-11T08:21:23.288Z,6.60
2023-02-11T08:23:53.325Z,6.60
2023-02-11T08:26:24.430Z,7.30
2023-02-11T08:28:54.468Z,6.70
2023-02-11T08:31:24.750Z,7.30
2023-02-11T08:33:54.658Z,6.80
2023-02-11T08:36:29.095Z,6.80
2023-02-11T08:39:17.418Z,6.90
2023-02-11T08:41:48.468Z,6.90
2023-02-11T08:44:16.822Z,7.00
2023-02-11T08:46:44.870Z,7.00
2023-02-11T08:49:12.954Z,7.10
2023-02-11T08:51:41.364Z,7.10
2023-02-11T08:54:10.775Z,7.10
2023-02-11T08:56:39.381Z,7.30
2023-02-11T08:59:09.158Z,8.10
2023-02-11T09:01:37.422Z,7.70
2023-02-11T09:04:05.900Z,7.40
2023-02-11T09:06:34.152Z,7.40
2023-02-11T09:09:02.491Z,8.00
2023-02-11T09:11:34.507Z,7.90
2023-02-11T09:14:03.960Z,7.70
2023-02-11T09:31:52.373Z,7.70
2023-02-11T09:34:20.450Z,8.00
2023-02-11T09:36:48.595Z,8.10
2023-02-11T09:39:18.933Z,8.10
2023-02-11T09:42:31.433Z,8.20
2023-02-11T09:45:01.325Z,8.30
2023-02-11T09:47:34.067Z,8.30
2023-02-11T09:50:06.045Z,8.30
2023-02-11T09:52:40.144Z,8.30
2023-02-11T09:55:18.545Z,8.30
2023-02-11T09:57:46.754Z,8.40
2023-02-11T10:00:22.822Z,8.40
2023-02-11T10:03:18.721Z,8.50
2023-02-11T10:06:11.384Z,8.70
2023-02-11T10:08:50.905Z,8.60
2023-02-11T10:11:31.977Z,8.70
2023-02-11T10:14:17.810Z,8.70
2023-02-11T10:17:00.024Z,8.80
2023-02-11T10:19:44.249Z,8.90
2023-02-11T10:22:19.456Z,8.90
2023-02-11T10:24:53.118Z,9.00
2023-02-11T10:27:23.022Z,9.70
2023-02-11T10:29:54.710Z,9.60
2023-02-11T10:32:33.839Z,9.40
2023-02-11T10:35:11.307Z,9.10
2023-02-11T10:37:39.358Z,9.10
2023-02-11T10:40:13.732Z,9.10
2023-02-11T10:42:45.425Z,9.20
2023-02-11T11:21:19.535Z,9.40
2023-02-11T11:23:56.926Z,9.40
2023-02-11T11:56:31.343Z,11.50
2023-02-11T11:59:03.617Z,9.60
2023-02-11T12:01:36.021Z,9.60
2023-02-11T12:04:26.292Z,9.90
2023-02-11T12:07:18.017Z,9.60
2023-02-11T12:09:56.865Z,9.70
2023-02-11T12:12:36.098Z,9.60
2023-02-11T12:15:15.607Z,9.70
2023-02-11T12:18:00.717Z,9.80
2023-02-11T12:20:38.816Z,9.60
2023-02-11T12:23:22.733Z,9.60
2023-02-11T12:25:58.800Z,9.80
2023-02-11T12:28:39.548Z,9.60
2023-02-11T12:31:23.125Z,9.60
2023-02-11T12:34:15.896Z,9.60
2023-02-11T12:36:54.426Z,9.70
2023-02-11T12:39:33.879Z,10.10
2023-02-11T12:42:36.457Z,9.70
2023-02-11T12:45:17.919Z,9.80
2023-02-11T12:47:57.657Z,9.80
2023-02-11T12:50:35.986Z,9.80
2023-02-11T12:53:16.261Z,10.30
2023-02-11T12:55:47.983Z,9.80
2023-02-11T12:58:21.765Z,9.80
2023-02-11T13:00:57.086Z,9.80
2023-02-11T13:03:28.648Z,10.70
2023-02-11T13:06:01.037Z,10.00
2023-02-11T13:08:29.932Z,9.90
2023-02-11T13:11:02.390Z,9.90
2023-02-11T13:13:32.657Z,9.90
2023-02-11T13:16:07.368Z,10.00
2023-02-11T13:18:49.336Z,10.00
2023-02-11T13:21:29.319Z,10.00
2023-02-11T13:24:02.867Z,10.00
2023-02-11T13:26:37.459Z,10.00
2023-02-11T13:29:21.984Z,10.00
2023-02-11T13:32:09.627Z,10.00
2023-02-11T13:34:58.551Z,10.00
2023-02-11T13:37:28.579Z,10.00
2023-02-11T13:40:02.120Z,10.10
2023-02-11T13:42:31.705Z,10.30
2023-02-11T13:45:00.105Z,10.10
2023-02-11T13:47:33.606Z,10.10
2023-02-11T13:50:07.273Z,10.10
2023-02-11T13:52:38.322Z,10.10
2023-02-11T13:55:16.053Z,10.10
2023-02-11T13:57:44.448Z,10.10
2023-02-11T14:00:49.410Z,10.10
2023-02-11T14:03:48.918Z,10.10
2023-02-11T14:06:37.981Z,10.10
2023-02-11T14:09:26.497Z,10.10
2023-02-11T14:11:57.181Z,10.00
2023-02-11T14:14:27.568Z,10.10
2023-02-11T14:17:30.936Z,10.20
2023-02-11T14:20:02.089Z,10.10
2023-02-11T14:22:32.919Z,10.10
2023-02-11T14:25:03.187Z,10.40
2023-02-11T14:27:37.582Z,10.10
2023-02-11T14:30:32.400Z,10.10
2023-02-11T14:33:27.740Z,10.10
2023-02-11T14:36:06.683Z,10.10
2023-02-11T14:38:50.521Z,10.10
2023-02-11T14:41:22.922Z,10.10
2023-02-11T14:43:55.027Z,10.10
2023-02-11T14:46:27.725Z,10.10
2023-02-11T14:48:59.739Z,10.10
2023-02-11T14:51:31.550Z,10.10
2023-02-11T14:54:03.825Z,10.30
2023-02-11T14:56:34.522Z,10.00
2023-02-11T14:59:03.646Z,10.00
2023-02-11T15:01:35.131Z,10.00
2023-02-11T15:04:04.655Z,10.00
2023-02-11T15:06:37.581Z,10.00
2023-02-11T15:09:17.811Z,10.00
2023-02-11T15:11:49.640Z,10.40
2023-02-11T15:14:24.010Z,10.00
2023-02-11T15:16:54.715Z,9.90
2023-02-11T15:19:26.777Z,9.90
2023-02-11T15:21:59.160Z,9.90
2023-02-11T15:24:28.450Z,10.00
2023-02-11T15:27:01.173Z,9.90
2023-02-11T15:29:30.690Z,9.90
2023-02-11T15:32:07.308Z,9.90
2023-02-11T15:34:35.890Z,9.80
2023-02-11T15:37:05.719Z,9.90
2023-02-11T15:39:37.491Z,9.80
2023-02-11T15:42:23.487Z,9.80
2023-02-11T15:45:08.725Z,9.80
2023-02-11T15:47:37.223Z,9.80
2023-02-11T15:50:06.621Z,9.80
2023-02-11T15:52:36.452Z,9.70
2023-02-11T15:55:05.154Z,9.80
2023-02-11T15:57:35.531Z,9.70
2023-02-11T16:00:07.249Z,9.70
2023-02-11T16:02:44.863Z,9.60
2023-02-11T16:05:28.611Z,9.60
2023-02-11T16:07:59.374Z,9.50
2023-02-11T16:10:30.709Z,9.50
2023-02-11T16:13:19.906Z,9.60
2023-02-11T16:15:54.914Z,9.50
2023-02-11T16:18:37.921Z,9.50
2023-02-11T16:21:12.858Z,9.80
2023-02-11T16:23:43.218Z,9.50
2023-02-11T16:26:22.064Z,9.50
2023-02-11T16:28:50.267Z,9.40
2023-02-11T16:31:18.797Z,9.40
2023-02-11T16:33:47.029Z,9.40
2023-02-11T16:36:18.144Z,9.30
2023-02-11T16:38:47.846Z,9.30
2023-02-11T16:41:15.887Z,9.40
2023-02-11T16:43:43.911Z,9.30
2023-02-11T16:46:15.411Z,9.20
2023-02-11T16:48:43.598Z,9.20
2023-02-11T16:51:14.245Z,9.20
2023-02-11T16:53:42.251Z,9.50
2023-02-11T16:56:17.207Z,9.20
2023-02-11T16:58:45.558Z,9.20
2023-02-11T17:01:14.446Z,9.10
2023-02-11T17:03:43.755Z,9.20
2023-02-11T17:06:13.506Z,9.10
2023-02-11T17:08:42.048Z,9.20
2023-02-11T17:11:10.083Z,9.40
2023-02-11T17:13:41.623Z,9.90
2023-02-11T17:16:18.326Z,9.50
2023-02-11T17:18:46.569Z,9.60
2023-02-11T17:21:14.942Z,9.10
2023-02-11T17:23:43.208Z,9.00
2023-02-11T17:26:11.285Z,9.00
2023-02-11T17:28:40.689Z,9.00
2023-02-11T17:31:10.281Z,9.00
2023-02-11T17:33:39.500Z,9.00
2023-02-11T17:36:09.058Z,8.90
2023-02-11T17:38:38.573Z,8.90
2023-02-11T17:41:07.466Z,8.80
2023-02-11T17:43:35.803Z,8.90
2023-02-11T17:46:10.154Z,8.90
2023-02-11T17:48:39.711Z,8.80
2023-02-11T17:51:22.366Z,8.80
2023-02-11T17:53:50.461Z,8.80
2023-02-11T17:56:19.107Z,8.80
2023-02-11T17:58:47.459Z,8.80
2023-02-11T18:01:17.376Z,8.90
2023-02-11T18:03:45.728Z,8.80
2023-02-11T18:06:14.108Z,8.70
2023-02-11T18:08:43.254Z,8.70
2023-02-11T18:11:12.636Z,8.80
2023-02-11T18:13:40.840Z,8.90
2023-02-11T18:16:09.569Z,9.10
2023-02-11T18:18:39.663Z,8.70
2023-02-11T18:21:08.952Z,8.70
2023-02-11T18:23:37.205Z,8.80
2023-02-11T18:26:08.657Z,8.70
2023-02-11T18:28:36.892Z,8.80
2023-02-11T18:31:05.978Z,8.60
2023-02-11T18:33:34.797Z,8.60
2023-02-11T18:36:08.425Z,8.60
2023-02-11T18:38:37.167Z,8.60
2023-02-11T18:41:07.316Z,8.60
2023-02-11T18:43:36.410Z,8.60
2023-02-11T18:46:08.788Z,8.60
2023-02-11T18:48:37.125Z,8.60
2023-02-11T18:51:09.756Z,8.60
2023-02-11T18:53:38.316Z,9.40
2023-02-11T18:56:11.195Z,8.60
2023-02-11T18:58:40.000Z,8.50
2023-02-11T19:01:13.538Z,8.50
2023-02-11T19:03:41.976Z,8.50
2023-02-11T19:06:15.619Z,8.50
2023-02-11T19:08:44.155Z,8.60
2023-02-11T19:11:12.739Z,8.50
2023-02-11T19:13:40.850Z,8.70
2023-02-11T19:16:11.473Z,8.60
2023-02-11T19:18:39.808Z,8.40
2023-02-11T19:21:09.893Z,8.40
2023-02-11T19:23:40.050Z,8.40
2023-02-11T19:26:08.598Z,8.40
2023-02-11T19:28:39.494Z,8.50
2023-02-11T19:31:09.283Z,8.40
2023-02-11T19:33:38.078Z,8.40
2023-02-11T19:36:07.838Z,8.40
2023-02-11T19:38:37.588Z,8.40
2023-02-11T19:41:07.414Z,8.30
2023-02-11T19:43:36.182Z,8.40
2023-02-11T19:46:05.553Z,8.40
2023-02-11T19:48:34.017Z,8.30
2023-02-11T19:51:11.450Z,8.40
2023-02-11T19:53:41.206Z,8.30
2023-02-11T19:56:10.993Z,8.30
2023-02-11T19:58:40.793Z,8.30
2023-02-11T20:01:10.633Z,8.20
2023-02-11T20:03:42.152Z,8.30
2023-02-11T20:06:14.663Z,8.20
2023-02-11T20:08:43.166Z,8.20
2023-02-11T20:11:15.140Z,8.30
2023-02-11T20:13:44.043Z,8.20
2023-02-11T20:16:14.171Z,8.10
2023-02-11T20:18:42.821Z,8.10
2023-02-11T20:21:11.886Z,8.10
2023-02-11T20:23:41.701Z,8.20
2023-02-11T20:26:14.735Z,8.10
2023-02-11T20:28:43.708Z,8.10
2023-02-11T20:31:12.714Z,8.10
2023-02-11T20:33:44.771Z,8.00
2023-02-11T20:36:16.686Z,8.30
2023-02-11T20:38:45.681Z,8.00
2023-02-11T20:41:16.958Z,8.00
2023-02-11T20:43:47.327Z,8.10
2023-02-11T20:46:18.630Z,8.20
2023-02-11T20:48:46.820Z,8.00
2023-02-11T20:51:16.884Z,7.60
2023-02-11T20:53:49.227Z,8.00
2023-02-11T20:56:19.668Z,8.60
2023-02-11T20:58:48.006Z,8.00
2023-02-11T21:01:19.050Z,8.00
2023-02-11T21:03:50.880Z,7.90
2023-02-11T21:06:19.399Z,8.00
2023-02-11T21:08:47.660Z,7.90
2023-02-11T21:11:16.477Z,8.10
2023-02-11T21:13:45.901Z,7.90
2023-02-11T21:16:17.008Z,7.90
2023-02-11T21:18:45.224Z,7.90
2023-02-11T21:21:13.252Z,7.90
2023-02-11T21:23:41.280Z,7.90
2023-02-11T21:26:09.980Z,8.90
2023-02-11T21:28:40.897Z,7.80
2023-02-11T21:31:11.064Z,8.00
2023-02-11T21:33:39.222Z,7.80
2023-02-11T21:36:08.059Z,8.00
2023-02-11T21:38:36.905Z,7.80
2023-02-11T21:41:05.543Z,8.00
2023-02-11T21:43:34.603Z,7.80
2023-02-11T21:46:07.241Z,7.80
2023-02-11T21:48:36.748Z,8.70
2023-02-11T21:51:06.386Z,7.90
2023-02-11T21:53:35.069Z,7.70
2023-02-11T21:56:05.105Z,7.80
2023-02-11T21:58:33.165Z,7.70
2023-02-11T22:01:01.244Z,7.70
2023-02-11T22:03:29.338Z,7.80
2023-02-11T22:05:58.734Z,7.80
2023-02-11T22:08:26.840Z,8.10
2023-02-11T22:10:54.865Z,7.70
2023-02-11T22:13:22.864Z,7.60
2023-02-11T22:15:59.270Z,8.10
2023-02-11T22:18:27.495Z,7.80
2023-02-11T22:21:01.178Z,7.80
2023-02-11T22:23:29.570Z,7.70
2023-02-11T22:25:58.102Z,7.60
2023-02-11T22:28:27.055Z,7.80
2023-02-11T22:30:56.161Z,7.70
2023-02-11T22:33:24.675Z,7.70
2023-02-11T22:36:00.458Z,7.80
2023-02-11T22:38:31.090Z,7.60
2023-02-11T22:40:59.247Z,7.60
2023-02-11T22:43:28.385Z,7.80
2023-02-11T22:45:57.083Z,7.60
2023-02-11T22:48:25.233Z,7.60
2023-02-11T22:50:53.244Z,7.80
2023-02-11T22:53:25.463Z,7.70
2023-02-11T22:55:53.831Z,7.60
2023-02-11T22:58:22.143Z,7.60
2023-02-11T23:00:50.202Z,8.00
2023-02-11T23:03:18.254Z,7.80
2023-02-11T23:05:46.262Z,7.60
2023-02-11T23:08:14.343Z,7.80
2023-02-11T23:10:43.782Z,7.60
2023-02-11T23:13:11.756Z,7.60
2023-02-11T23:15:41.745Z,8.00
2023-02-11T23:18:10.822Z,7.60
2023-02-11T23:20:40.989Z,7.70
2023-02-11T23:23:09.145Z,7.70
2023-02-11T23:25:44.335Z,7.80
2023-02-11T23:28:13.313Z,7.50
2023-02-11T23:30:42.390Z,7.60
2023-02-11T23:33:10.380Z,7.40
2023-02-11T23:35:38.486Z,7.50
2023-02-11T23:38:06.577Z,7.60
2023-02-11T23:40:34.611Z,7.50
2023-02-11T23:43:04.041Z,7.60
2023-02-11T23:45:32.252Z,7.60
2023-02-11T23:48:00.237Z,7.70
2023-02-11T23:50:28.301Z,7.70
2023-02-11T23:52:56.381Z,7.50
2023-02-11T23:55:24.382Z,7.50
2023-02-11T23:57:52.369Z,7.40
